Currently 56°F in Lake Elsinore, California, USA
56°F
56°F / 35°F
3 mph W
0.00"
Monday, February 18, 2019 2:20 PM PST

Lake Elsinore, California Weather Summary
Last 36 Hours

Temperature Winds Hourly Humidity Dewpoint
Time Report Norm Report Norm Max Gusts Precip. Rpt. Norm Rpt. Norm Pressure
1Mon 02:20 PM  56.1°F  67°F  3 mph W  4 mph  7 mph  0.00"  35%  49%  28°F  46°F  29.99"
Mon 02:00 PM  56.1°F  67°F  2 mph E  4 mph  9 mph  0.00"  38%  49%  30°F  46°F  29.99"
2Mon 01:07 PM  56.5°F  66°F  5 mph SE  4 mph  8 mph  ----  40%  50%  31°F  46°F  30.01"
Mon 01:00 PM  56.3°F  66°F  4 mph S  3 mph  7 mph  0.00"  37%  50%  30°F  46°F  30.01"
Mon 12:00 PM  53.4°F  65°F  2 mph E  3 mph  8 mph  0.00"  46%  52%  32°F  46°F  30.04"
Mon 11:00 AM  52.3°F  62°F  4 mph SE  3 mph  8 mph  0.00"  48%  58%  33°F  47°F  30.05"
Mon 10:00 AM  49.4°F  59°F  4 mph SE  2 mph  6 mph  0.00"  65%  67%  38°F  47°F  30.06"
Mon 09:00 AM  47.1°F  55°F  2 mph SE  2 mph  5 mph  0.00"  73%  76%  38°F  47°F  30.05"
Mon 08:00 AM  43.0°F  50°F  calm  1 mph  none  0.00"  86%  85%  39°F  46°F  30.05"
Mon 07:00 AM  34.9°F  44°F  calm  1 mph  3 mph  0.00"  88%  90%  32°F  41°F  30.02"
3Mon 06:50 AM  34.7°F  44°F  calm  1 mph  3 mph  ----  88%  89%  31°F  41°F  30.03"
Mon 06:00 AM  35.1°F  44°F  calm  1 mph  6 mph  0.00"  87%  89%  31°F  41°F  30.01"
Mon 05:00 AM  36.1°F  44°F  calm  1 mph  3 mph  0.00"  86%  89%  32°F  41°F  30.00"
Mon 04:00 AM  37.2°F  45°F  calm  1 mph  5 mph  0.00"  85%  87%  33°F  41°F  30.00"
Mon 03:00 AM  38.2°F  45°F  calm  1 mph  none  0.00"  84%  87%  34°F  42°F  29.99"
Mon 02:00 AM  39.7°F  46°F  calm  1 mph  none  0.00"  82%  86%  34°F  42°F  29.99"
Mon 01:00 AM  42.0°F  47°F  calm  1 mph  14 mph  0.00"  78%  84%  35°F  42°F  29.99"
Mon 12:00 AM  41.9°F  48°F  calm  1 mph  none  0.00"  79%  82%  36°F  43°F  29.98"
Sun 11:00 PM  44.6°F  49°F  calm  1 mph  22 mph  0.02"  77%  80%  38°F  43°F  29.98"
Sun 10:00 PM  45.6°F  51°F  calm  1 mph  22 mph  0.05"  75%  78%  38°F  44°F  29.98"
Sun 09:00 PM  45.5°F  52°F  2 mph SW  1 mph  13 mph  0.08"  78%  75%  39°F  44°F  29.97"
Sun 08:00 PM  47.1°F  54°F  7 mph W  1 mph  20 mph  0.04"  72%  72%  38°F  45°F  29.97"
Sun 07:00 PM  47.3°F  56°F  8 mph W  2 mph  22 mph  0.02"  70%  68%  38°F  45°F  29.95"
Sun 06:00 PM  48.1°F  59°F  3 mph W  3 mph  29 mph  0.00"  67%  63%  37°F  46°F  29.94"
Sun 05:00 PM  48.3°F  63°F  1 mph SW  4 mph  22 mph  0.01"  72%  57%  39°F  46°F  29.93"
Sun 04:00 PM  48.7°F  66°F  calm  4 mph  18 mph  0.09"  80%  51%  42°F  47°F  29.95"
Sun 03:00 PM  48.6°F  67°F  calm  4 mph  17 mph  0.12"  79%  49%  42°F  47°F  29.98"
Sun 02:00 PM  50.3°F  67°F  9 mph SW  4 mph  21 mph  0.03"  69%  48%  40°F  46°F  30.01"
Sun 01:00 PM  57.5°F  67°F  12 mph SW  3 mph  19 mph  0.00"  40%  49%  32°F  46°F  30.03"
Sun 12:00 PM  57.9°F  66°F  12 mph SW  3 mph  20 mph  0.00"  40%  52%  33°F  47°F  30.05"
Sun 11:00 AM  56.1°F  63°F  8 mph SW  3 mph  15 mph  0.00"  43%  57%  33°F  47°F  30.08"
Sun 10:00 AM  56.1°F  59°F  8 mph SW  2 mph  17 mph  0.00"  43%  66%  33°F  47°F  30.07"
Sun 09:00 AM  53.1°F  55°F  10 mph S  1 mph  14 mph  0.00"  53%  76%  35°F  47°F  30.09"
Sun 08:00 AM  51.0°F  50°F  3 mph SW  1 mph  8 mph  0.00"  61%  85%  37°F  46°F  30.08"
Sun 07:00 AM  41.0°F  44°F  2 mph W  1 mph  6 mph  0.00"  77%  90%  34°F  41°F  30.06"
Sun 06:00 AM  39.9°F  44°F  calm  1 mph  6 mph  0.00"  77%  89%  33°F  41°F  30.06"
Sun 05:00 AM  42.0°F  45°F  calm  calm  10 mph  0.00"  73%  88%  34°F  41°F  30.04"
Sun 04:00 AM  43.2°F  45°F  2 mph E  1 mph  7 mph  0.00"  71%  87%  34°F  41°F  30.04"
Sun 03:00 AM  44.2°F  46°F  2 mph SW  calm  15 mph  0.00"  70%  86%  34°F  42°F  30.05"

  1. Current weather data. No green row appears if the current weather data is also the high or low for the current day.
  2. High temperature for the current day.
  3. Low temperature for the current day.

The Lake Elsinore, California weather pages are a service of WeatherCurrents. Lake Elsinore is located south of Corona and north of the Temecula Valley, in southwestern Riverside County, California.
Copyright ©Mon Feb 18 14:21:02 PST 2019  WeatherCurrents. All rights reserved. - Submit questions and comments - Privacy Policy

This page automatically refreshes every 10 minutes.